Scout — WDF8049 — position and weather

sailwx.info

Track history (hours):
 
Tides and Currents Weather Stations Pressure Air Temp Water Temp Dewpoint Dewpoint Depression Visibility Wind Speed Wind Dir Waves Ship Positions

Scout

Owner: Sandbo, Scott E, Portland, OR. More information available from US FCC via Universal Licensing System and Coast Guard Vessel Documentation Center.

Last reported at 2016-Jun-10 22:22 UTC. Time now 2016-Jun-26 13:52 UTC.
Position N 48°36' W 123°12'.
Warning: this ship's position is 15 days out of date.

Length 15 m.

Type: Pleasure craft. MMSI: 367490850.

Date/timePositionNaut miles runAvg speedWind from/ knotsBaromVisibWave heightAir tempDewpointWater temp
2016-Jun-10 22:22N 48°36' W 123°12'55 2.1
2016-Jun-09 20:06N 48°22' W 124°33'3 4.7
2016-Jun-09 19:33N 48°22' W 124°37'9217.5
2016-Jun-09 14:19N 46°51' W 124°23'1621.2
2016-Jun-09 13:33N 46°35' W 124°18'1918.9
2016-Jun-09 12:33N 46°17' W 124°09'1413.7
2016-Jun-09 11:33N 46°11' W 123°51'0 0.0
2016-Jun-08 22:06N 46°11' W 123°51'3 4.9
2016-Jun-08 21:33N 46°12' W 123°48'1716.5
2016-Jun-08 20:32N 46°09' W 123°24'2020.5
2016-Jun-08 19:33N 46°05' W 122°55'2221.9
2016-Jun-08 18:33N 45°45' W 122°46'  
2016-May-31 23:33N 45°37' W 122°41'  
Track history (hours):
 
Tides and Currents Weather Stations Pressure Air Temp Water Temp Dewpoint Dewpoint Depression Visibility Wind Speed Wind Dir Waves Ship Positions

Scout

Owner: Sandbo, Scott E, Portland, OR. More information available from US FCC via Universal Licensing System and Coast Guard Vessel Documentation Center.

Last reported at 2016-Jun-10 22:22 UTC. Time now 2016-Jun-26 13:52 UTC.
Position N 48°36' W 123°12'.
Warning: this ship's position is 15 days out of date.

Length 15 m.

Type: Pleasure craft. MMSI: 367490850.

Date/timePositionNaut miles runAvg speedWind from/ knotsBaromVisibWave heightAir tempDewpointWater temp
2016-Jun-10 22:22N 48°36' W 123°12'55 2.1
2016-Jun-09 20:06N 48°22' W 124°33'3 4.7
2016-Jun-09 19:33N 48°22' W 124°37'9217.5
2016-Jun-09 14:19N 46°51' W 124°23'1621.2
2016-Jun-09 13:33N 46°35' W 124°18'1918.9
2016-Jun-09 12:33N 46°17' W 124°09'1413.7
2016-Jun-09 11:33N 46°11' W 123°51'0 0.0
2016-Jun-08 22:06N 46°11' W 123°51'3 4.9
2016-Jun-08 21:33N 46°12' W 123°48'1716.5
2016-Jun-08 20:32N 46°09' W 123°24'2020.5
2016-Jun-08 19:33N 46°05' W 122°55'2221.9
2016-Jun-08 18:33N 45°45' W 122°46'  
2016-May-31 23:33N 45°37' W 122°41'  

Dump ship's entire track history